Gorno-Altaysk, Russia
Current Conditions -  °F | °C
As of 5:00 AM on Wednesday 26 Nov 2014 (Local Time) from UNBB Reporting Station
Heavy Snow Heavy Snow  
Wind Chill: -14°   Ceiling: 200
Heat Index:   Visibility: 0.28mi
Dew Point:   Wind: 22mph
Humidity: 85%   Direction: 230°SW
Pressure: 29.91"   Gusts: 34mph
Location:  51.96°N, 85.96°E
Report Text: UNBB 252200Z 23010G15MPS 0450 R24/0900V1500D +SN BLSN OVC002M14/M16 Q1013 NOSIG RMK QBB070 QFE738/0984 24421048
Loading
Personal Weather Stations






























Interactive Weather Map New forecast layout! Learn more

10-Day Weather Forecast

Advertisements
Track Severe Weather on mobile